createdAt,value
2023-05-19T00:02:45.706Z,12.87
2023-05-19T00:06:01.423Z,12.92
2023-05-19T00:09:17.421Z,12.91
2023-05-19T00:12:26.422Z,12.86
2023-05-19T00:15:35.557Z,12.83
2023-05-19T00:18:50.471Z,12.81
2023-05-19T00:21:59.400Z,12.77
2023-05-19T00:25:14.429Z,12.75
2023-05-19T00:28:22.444Z,12.73
2023-05-19T00:31:31.036Z,12.68
2023-05-19T00:34:46.393Z,12.63
2023-05-19T00:37:54.921Z,12.56
2023-05-19T00:41:11.384Z,12.48
2023-05-19T00:44:26.428Z,12.51
2023-05-19T00:47:41.456Z,12.46
2023-05-19T00:50:44.590Z,12.43
2023-05-19T00:53:59.417Z,12.40
2023-05-19T00:57:08.419Z,12.38
2023-05-19T01:00:17.198Z,12.37
2023-05-19T01:03:25.546Z,12.38
2023-05-19T01:06:34.720Z,12.34
2023-05-19T01:09:49.467Z,12.34
2023-05-19T01:12:58.030Z,12.33
2023-05-19T01:16:17.482Z,12.35
2023-05-19T01:20:20.420Z,12.33
2023-05-19T01:23:46.421Z,12.28
2023-05-19T01:27:27.407Z,12.29
2023-05-19T01:30:35.957Z,12.23
2023-05-19T01:33:46.395Z,12.34
2023-05-19T01:37:09.411Z,12.33
2023-05-19T01:40:26.409Z,12.34
2023-05-19T01:43:42.426Z,12.26
2023-05-19T01:46:44.927Z,12.29
2023-05-19T01:49:59.428Z,12.30
2023-05-19T01:53:08.418Z,12.30
2023-05-19T01:56:24.337Z,12.28
2023-05-19T02:00:06.417Z,12.26
2023-05-19T02:03:14.911Z,12.24
2023-05-19T02:06:47.438Z,12.26
2023-05-19T02:10:21.428Z,12.17
2023-05-19T02:13:33.828Z,12.20
2023-05-19T02:16:54.469Z,12.15
2023-05-19T02:20:11.409Z,12.13
2023-05-19T02:23:26.426Z,12.08
2023-05-19T02:26:28.323Z,12.02
2023-05-19T02:29:43.412Z,12.01
2023-05-19T02:33:05.450Z,12.07
2023-05-19T02:36:20.430Z,12.04
2023-05-19T02:39:29.016Z,12.02
2023-05-19T02:42:43.426Z,12.03
2023-05-19T02:45:58.454Z,12.03
2023-05-19T02:49:07.443Z,12.04
2023-05-19T02:52:16.068Z,12.03
2023-05-19T02:55:31.419Z,12.03
2023-05-19T02:58:39.984Z,12.01
2023-05-19T03:01:48.483Z,12.01
2023-05-19T03:05:03.433Z,12.02
2023-05-19T03:08:12.003Z,12.03
2023-05-19T03:11:26.451Z,12.05
2023-05-19T03:14:35.288Z,12.07
2023-05-19T03:17:50.541Z,12.01
2023-05-19T03:20:58.942Z,12.01
2023-05-19T03:24:10.432Z,11.94
2023-05-19T03:27:18.916Z,12.00
2023-05-19T03:30:27.413Z,12.00
2023-05-19T03:33:42.788Z,12.04
2023-05-19T03:36:57.423Z,12.05
2023-05-19T03:40:06.414Z,12.05
2023-05-19T03:43:15.176Z,12.09
2023-05-19T03:46:30.462Z,12.08
2023-05-19T03:49:38.426Z,12.17
2023-05-19T03:52:46.926Z,12.22
2023-05-19T03:56:01.448Z,12.25
2023-05-19T03:59:03.297Z,12.30
2023-05-19T04:02:18.455Z,12.34
2023-05-19T04:05:26.980Z,12.32
2023-05-19T04:08:41.428Z,12.46
2023-05-19T04:11:43.456Z,12.51
2023-05-19T04:14:58.446Z,12.54
2023-05-19T04:18:07.049Z,12.60
2023-05-19T04:21:21.433Z,12.57
2023-05-19T04:24:23.314Z,12.69
2023-05-19T04:27:38.432Z,12.70
2023-05-19T04:30:40.841Z,12.73
2023-05-19T04:33:55.467Z,12.78
2023-05-19T04:37:14.836Z,12.86
2023-05-19T04:40:29.430Z,12.87
2023-05-19T04:43:45.480Z,12.92
2023-05-19T04:46:47.394Z,12.95
2023-05-19T04:50:02.456Z,13.01
2023-05-19T04:53:04.661Z,13.07
2023-05-19T04:56:19.424Z,13.17
2023-05-19T04:59:28.445Z,13.17
2023-05-19T05:02:43.544Z,13.17
2023-05-19T05:05:45.479Z,13.16
2023-05-19T05:09:00.427Z,13.32
2023-05-19T05:12:16.417Z,13.55
2023-05-19T05:15:25.447Z,13.63
2023-05-19T05:18:43.445Z,13.79
2023-05-19T05:21:53.417Z,13.88
2023-05-19T05:25:10.431Z,13.96
2023-05-19T05:28:25.453Z,14.02
2023-05-19T05:31:34.481Z,14.09
2023-05-19T05:34:50.324Z,14.10
2023-05-19T05:37:58.419Z,14.14
2023-05-19T05:41:06.951Z,14.32
2023-05-19T05:44:21.453Z,14.27
2023-05-19T05:47:23.631Z,14.31
2023-05-19T05:50:38.474Z,14.41
2023-05-19T05:53:42.146Z,14.45
2023-05-19T05:56:58.435Z,14.49
2023-05-19T06:00:08.072Z,14.66
2023-05-19T06:03:16.537Z,14.73
2023-05-19T06:06:32.495Z,14.75
2023-05-19T06:09:34.770Z,14.78
2023-05-19T06:12:49.434Z,14.89
2023-05-19T06:15:51.836Z,15.06
2023-05-19T06:19:06.475Z,15.16
2023-05-19T06:22:08.385Z,15.20
2023-05-19T06:25:24.526Z,15.25
2023-05-19T06:28:33.793Z,15.42
2023-05-19T06:31:50.849Z,15.66
2023-05-19T06:35:05.444Z,15.72
2023-05-19T06:38:20.425Z,15.59
2023-05-19T06:41:28.957Z,15.60
2023-05-19T06:44:43.454Z,15.74
2023-05-19T06:47:52.136Z,15.85
2023-05-19T06:51:00.440Z,15.90
2023-05-19T06:54:08.949Z,15.99
2023-05-19T06:57:17.433Z,16.33
2023-05-19T07:00:26.022Z,16.54
2023-05-19T07:03:34.612Z,16.82
2023-05-19T07:06:49.476Z,16.97
2023-05-19T07:09:51.356Z,17.00
2023-05-19T07:13:06.442Z,17.09
2023-05-19T07:16:15.067Z,17.29
2023-05-19T07:19:23.548Z,17.44
2023-05-19T07:22:39.502Z,17.33
2023-05-19T07:25:47.447Z,17.46
2023-05-19T07:28:56.111Z,17.81
2023-05-19T07:32:12.639Z,18.04
2023-05-19T07:35:21.443Z,18.23
2023-05-19T07:38:37.459Z,18.63
2023-05-19T07:41:45.466Z,18.89
2023-05-19T07:45:00.465Z,19.06
2023-05-19T07:48:09.130Z,19.00
2023-05-19T07:51:19.553Z,18.99
2023-05-19T07:54:27.993Z,18.91
2023-05-19T07:57:42.453Z,18.98
2023-05-19T08:00:50.939Z,18.92
2023-05-19T08:04:05.613Z,18.84
2023-05-19T08:07:07.574Z,18.83
2023-05-19T08:10:22.607Z,19.38
2023-05-19T08:13:31.319Z,19.90
2023-05-19T08:16:39.535Z,20.30
2023-05-19T08:19:48.108Z,20.43
2023-05-19T08:22:56.459Z,20.64
2023-05-19T08:26:05.397Z,20.75
2023-05-19T08:29:21.704Z,20.90
2023-05-19T08:32:36.542Z,21.23
2023-05-19T08:35:44.762Z,21.28
2023-05-19T08:39:00.527Z,21.23
2023-05-19T08:42:02.670Z,21.49
2023-05-19T08:45:17.595Z,21.77
2023-05-19T08:48:26.465Z,21.84
2023-05-19T08:51:59.460Z,22.09
2023-05-19T08:55:27.453Z,22.35
2023-05-19T08:58:43.465Z,22.21
2023-05-19T09:01:54.155Z,21.94
2023-05-19T09:05:11.565Z,21.96
2023-05-19T09:08:13.863Z,21.71
2023-05-19T09:11:28.477Z,21.64
2023-05-19T09:14:38.129Z,21.77
2023-05-19T09:17:46.561Z,21.83
2023-05-19T09:21:00.365Z,21.59
2023-05-19T09:24:13.480Z,21.27
2023-05-19T09:27:22.968Z,21.20
2023-05-19T09:30:31.541Z,21.40
2023-05-19T09:33:44.361Z,21.25
2023-05-19T09:37:07.489Z,21.27
2023-05-19T09:40:11.240Z,20.91
2023-05-19T09:43:27.475Z,20.97
2023-05-19T09:46:35.649Z,21.01
2023-05-19T09:49:54.550Z,21.35
2023-05-19T09:53:10.485Z,22.14
2023-05-19T09:56:18.991Z,21.86
2023-05-19T09:59:37.646Z,22.42
2023-05-19T10:02:48.271Z,22.60
2023-05-19T10:05:56.527Z,21.76
2023-05-19T10:09:05.799Z,21.53
2023-05-19T10:12:15.477Z,21.02
2023-05-19T10:15:33.039Z,21.42
2023-05-19T10:18:40.258Z,21.32
2023-05-19T10:21:56.493Z,21.15
2023-05-19T10:25:05.936Z,21.66
2023-05-19T10:28:23.518Z,22.09
2023-05-19T10:31:26.483Z,21.94
2023-05-19T10:35:04.497Z,22.62
2023-05-19T10:38:16.722Z,23.03
2023-05-19T10:42:00.486Z,23.12
2023-05-19T10:45:28.481Z,23.12
2023-05-19T10:48:34.058Z,23.55
2023-05-19T10:51:51.497Z,23.29
2023-05-19T10:54:53.413Z,22.61
2023-05-19T10:58:08.676Z,22.45
2023-05-19T11:01:18.672Z,23.12
2023-05-19T11:04:53.541Z,23.59
2023-05-19T11:07:57.441Z,23.75
2023-05-19T11:11:23.668Z,24.10
2023-05-19T11:14:35.528Z,23.93
2023-05-19T11:17:55.627Z,23.58
2023-05-19T11:21:04.137Z,23.06
2023-05-19T11:24:47.507Z,22.98
2023-05-19T11:28:03.522Z,22.92
2023-05-19T11:31:13.494Z,22.99
2023-05-19T11:34:29.515Z,22.86
2023-05-19T11:37:52.568Z,23.32
2023-05-19T11:41:07.533Z,23.46
2023-05-19T11:44:16.099Z,23.62
2023-05-19T11:47:24.643Z,23.80
2023-05-19T11:50:33.177Z,24.11
2023-05-19T11:53:41.522Z,23.45
2023-05-19T11:56:50.089Z,22.87
2023-05-19T12:00:08.706Z,22.91
2023-05-19T12:03:17.775Z,23.52
2023-05-19T12:06:26.792Z,23.79
2023-05-19T12:09:41.529Z,23.93
2023-05-19T12:13:00.528Z,24.11
2023-05-19T12:16:10.521Z,24.14
2023-05-19T12:19:19.118Z,24.26
2023-05-19T12:22:33.524Z,24.21
2023-05-19T12:25:42.536Z,24.19
2023-05-19T12:28:58.503Z,24.34
2023-05-19T12:32:08.585Z,24.19
2023-05-19T12:35:23.520Z,24.52
2023-05-19T12:38:38.537Z,24.66
2023-05-19T12:41:53.529Z,24.55
2023-05-19T12:45:12.541Z,24.55
2023-05-19T12:48:37.599Z,24.37
2023-05-19T12:51:46.500Z,24.14
2023-05-19T12:55:05.973Z,23.58
2023-05-19T12:58:14.542Z,23.36
2023-05-19T13:01:23.620Z,23.20
2023-05-19T13:04:32.508Z,23.16
2023-05-19T13:07:47.526Z,23.06
2023-05-19T13:10:56.037Z,23.41
2023-05-19T13:14:04.521Z,23.14
2023-05-19T13:17:13.158Z,23.35
2023-05-19T13:20:28.750Z,23.95
2023-05-19T13:23:43.522Z,23.89
2023-05-19T13:26:58.603Z,24.13
2023-05-19T13:30:07.757Z,24.00
2023-05-19T13:33:16.624Z,24.27
2023-05-19T13:36:31.817Z,24.49
2023-05-19T13:39:46.546Z,24.58
2023-05-19T13:42:55.096Z,24.68
2023-05-19T13:46:09.584Z,24.55
2023-05-19T13:49:18.095Z,24.35
2023-05-19T13:52:33.525Z,24.56
2023-05-19T13:55:48.554Z,23.88
2023-05-19T13:59:03.533Z,23.63
2023-05-19T14:02:18.541Z,24.09
2023-05-19T14:05:33.618Z,24.20
2023-05-19T14:08:48.532Z,24.34
2023-05-19T14:11:50.793Z,24.56
2023-05-19T14:15:08.987Z,24.40
2023-05-19T14:18:23.602Z,24.69
2023-05-19T14:21:38.581Z,24.31
2023-05-19T14:24:40.565Z,23.95
2023-05-19T14:27:58.568Z,23.89
2023-05-19T14:31:14.254Z,24.03
2023-05-19T14:34:29.564Z,23.65
2023-05-19T14:37:44.847Z,23.84
2023-05-19T14:40:53.544Z,24.22
2023-05-19T14:44:02.065Z,24.43
2023-05-19T14:47:16.632Z,24.20
2023-05-19T14:50:26.453Z,24.19
2023-05-19T14:53:35.565Z,23.90
2023-05-19T14:56:50.572Z,24.03
2023-05-19T14:59:59.163Z,24.40
2023-05-19T15:03:08.671Z,24.35
2023-05-19T15:06:17.222Z,23.93
2023-05-19T15:09:25.578Z,23.78
2023-05-19T15:12:40.565Z,23.76
2023-05-19T15:15:48.598Z,24.03
2023-05-19T15:19:03.659Z,23.75
2023-05-19T15:22:12.636Z,23.47
2023-05-19T15:25:21.243Z,23.39
2023-05-19T15:28:29.564Z,23.32
2023-05-19T15:31:38.607Z,23.33
2023-05-19T15:34:47.616Z,23.40
2023-05-19T15:38:09.620Z,23.33
2023-05-19T15:41:18.078Z,23.29
2023-05-19T15:44:32.586Z,23.21
2023-05-19T15:47:40.644Z,23.20
2023-05-19T15:50:49.158Z,22.97
2023-05-19T15:53:57.565Z,23.26
2023-05-19T15:57:06.268Z,23.26
2023-05-19T16:00:15.572Z,23.22
2023-05-19T16:03:24.225Z,23.19
2023-05-19T16:06:39.558Z,23.16
2023-05-19T16:09:41.407Z,23.16
2023-05-19T16:12:56.565Z,23.11
2023-05-19T16:16:11.733Z,23.08
2023-05-19T16:19:20.639Z,23.08
2023-05-19T16:22:29.110Z,22.98
2023-05-19T16:25:37.572Z,22.90
2023-05-19T16:28:52.615Z,22.76
2023-05-19T16:31:54.525Z,22.69
2023-05-19T16:35:09.628Z,22.67
2023-05-19T16:38:31.572Z,22.62
2023-05-19T16:41:39.618Z,22.56
2023-05-19T16:44:54.591Z,22.46
2023-05-19T16:48:09.700Z,22.32
2023-05-19T16:51:11.709Z,22.20
2023-05-19T16:54:26.596Z,22.12
2023-05-19T16:57:34.580Z,21.99
2023-05-19T17:00:49.599Z,21.94
2023-05-19T17:03:58.207Z,21.85
2023-05-19T17:07:12.606Z,21.79
2023-05-19T17:10:21.238Z,21.72
2023-05-19T17:13:36.613Z,21.63
2023-05-19T17:16:38.538Z,21.34
2023-05-19T17:19:53.635Z,21.45
2023-05-19T17:23:08.599Z,21.37
2023-05-19T17:26:17.173Z,21.31
2023-05-19T17:29:31.637Z,21.23
2023-05-19T17:32:46.727Z,21.15
2023-05-19T17:36:09.603Z,21.06
2023-05-19T17:39:17.608Z,20.92
2023-05-19T17:42:26.214Z,20.59
2023-05-19T17:45:34.619Z,20.69
2023-05-19T17:48:43.399Z,20.65
2023-05-19T17:51:52.647Z,20.48
2023-05-19T17:55:01.430Z,20.48
2023-05-19T17:58:10.722Z,20.40
2023-05-19T18:01:19.659Z,20.30
2023-05-19T18:04:34.637Z,20.17
2023-05-19T18:07:44.636Z,20.03
2023-05-19T18:11:02.616Z,19.89
2023-05-19T18:14:17.618Z,19.67
2023-05-19T18:17:26.230Z,19.58
2023-05-19T18:20:34.930Z,19.43
2023-05-19T18:23:43.742Z,19.33
2023-05-19T18:26:58.633Z,19.25
2023-05-19T18:30:14.588Z,19.14
2023-05-19T18:33:16.433Z,18.95
2023-05-19T18:36:38.673Z,18.79
2023-05-19T18:39:40.635Z,18.66
2023-05-19T18:42:55.594Z,18.52
2023-05-19T18:46:04.240Z,18.46
2023-05-19T18:49:18.675Z,18.37
2023-05-19T18:52:20.658Z,18.25
2023-05-19T18:55:37.136Z,18.20
2023-05-19T18:58:47.180Z,18.15
2023-05-19T19:02:01.631Z,18.11
2023-05-19T19:05:03.724Z,18.05
2023-05-19T19:08:18.632Z,18.10
2023-05-19T19:11:33.617Z,18.06
2023-05-19T19:14:35.564Z,17.96
2023-05-19T19:17:50.677Z,17.87
2023-05-19T19:20:52.841Z,17.80
2023-05-19T19:24:07.648Z,17.73
2023-05-19T19:27:16.218Z,17.67
2023-05-19T19:30:24.651Z,17.60
2023-05-19T19:33:33.350Z,17.60
2023-05-19T19:36:48.622Z,17.57
2023-05-19T19:39:56.909Z,17.55
2023-05-19T19:43:11.634Z,17.52
2023-05-19T19:46:13.656Z,17.55
2023-05-19T19:49:28.646Z,17.53
2023-05-19T19:52:37.654Z,17.59
2023-05-19T19:55:45.624Z,17.62
2023-05-19T19:59:00.627Z,17.62
2023-05-19T20:02:02.561Z,17.67
2023-05-19T20:05:17.623Z,17.71
2023-05-19T20:08:33.667Z,17.77
2023-05-19T20:11:48.634Z,17.91
2023-05-19T20:14:57.247Z,18.01
2023-05-19T20:18:12.746Z,18.10
2023-05-19T20:21:21.668Z,18.23
2023-05-19T20:24:36.647Z,18.30
2023-05-19T20:27:44.636Z,18.38
2023-05-19T20:30:59.645Z,18.41
2023-05-19T20:34:01.847Z,18.41
2023-05-19T20:37:16.631Z,18.40
2023-05-19T20:40:18.563Z,18.42
2023-05-19T20:43:33.624Z,18.44
2023-05-19T20:46:42.204Z,18.48
2023-05-19T20:49:56.646Z,18.50
2023-05-19T20:52:58.586Z,18.49
2023-05-19T20:56:13.634Z,18.48
2023-05-19T20:59:15.523Z,18.43
2023-05-19T21:02:30.674Z,18.42
2023-05-19T21:05:38.635Z,18.41
2023-05-19T21:08:47.211Z,18.33
2023-05-19T21:11:55.633Z,18.25
2023-05-19T21:15:04.448Z,18.23
2023-05-19T21:18:19.657Z,18.18
2023-05-19T21:21:21.546Z,18.13
2023-05-19T21:24:36.638Z,18.07
2023-05-19T21:27:45.299Z,18.06
2023-05-19T21:30:54.667Z,17.99
2023-05-19T21:34:11.638Z,17.92
2023-05-19T21:37:19.906Z,17.87
2023-05-19T21:40:34.888Z,17.81
2023-05-19T21:43:36.953Z,17.79
2023-05-19T21:46:51.808Z,17.77
2023-05-19T21:50:00.277Z,17.71
2023-05-19T21:53:08.683Z,17.71
2023-05-19T21:56:23.652Z,17.61
2023-05-19T21:59:25.628Z,17.66
2023-05-19T22:02:47.782Z,17.61
2023-05-19T22:06:02.698Z,17.59
2023-05-19T22:09:17.655Z,17.56
2023-05-19T22:12:26.160Z,17.57
2023-05-19T22:15:40.632Z,17.54
2023-05-19T22:18:49.291Z,17.54
2023-05-19T22:22:06.011Z,17.49
2023-05-19T22:25:22.245Z,17.44
2023-05-19T22:28:30.647Z,17.42
2023-05-19T22:31:45.660Z,17.41
2023-05-19T22:34:54.278Z,17.35
2023-05-19T22:38:16.711Z,17.28
2023-05-19T22:41:31.646Z,17.24
2023-05-19T22:44:46.668Z,17.15
2023-05-19T22:47:55.412Z,17.07
2023-05-19T22:51:03.682Z,17.08
2023-05-19T22:54:12.273Z,17.00
2023-05-19T22:57:26.667Z,17.03
2023-05-19T23:00:28.611Z,17.01
2023-05-19T23:03:43.708Z,16.95
2023-05-19T23:06:52.257Z,16.94
2023-05-19T23:10:06.673Z,16.88
2023-05-19T23:13:15.362Z,16.84
2023-05-19T23:16:23.682Z,16.81
2023-05-19T23:19:38.683Z,16.76
2023-05-19T23:22:46.681Z,16.70
2023-05-19T23:25:55.180Z,16.68
2023-05-19T23:29:09.636Z,16.65
2023-05-19T23:32:18.649Z,16.58
2023-05-19T23:35:40.647Z,16.52
2023-05-19T23:38:55.659Z,16.49
2023-05-19T23:42:05.122Z,16.39
2023-05-19T23:45:13.680Z,16.45
2023-05-19T23:48:22.191Z,16.43
2023-05-19T23:51:30.694Z,16.38
2023-05-19T23:54:45.651Z,16.37
2023-05-19T23:57:53.680Z,16.35
